sensor_id;sensor_type;location;lat;lon;timestamp;P1;durP1;ratioP1;P2;durP2;ratioP2
20669;SDS011;10494;50.868;4.180;2023-11-21T00:00:12;37.28;;;16.52;;
20669;SDS011;10494;50.868;4.180;2023-11-21T00:02:39;35.38;;;15.85;;
20669;SDS011;10494;50.868;4.180;2023-11-21T00:05:09;45.92;;;17.15;;
20669;SDS011;10494;50.868;4.180;2023-11-21T00:07:36;39.08;;;16.20;;
20669;SDS011;10494;50.868;4.180;2023-11-21T00:10:03;37.28;;;16.05;;
20669;SDS011;10494;50.868;4.180;2023-11-21T00:12:30;42.20;;;16.70;;
20669;SDS011;10494;50.868;4.180;2023-11-21T00:14:56;37.88;;;15.93;;
20669;SDS011;10494;50.868;4.180;2023-11-21T00:17:22;39.70;;;15.85;;
20669;SDS011;10494;50.868;4.180;2023-11-21T00:19:48;37.17;;;16.10;;
20669;SDS011;10494;50.868;4.180;2023-11-21T00:22:13;41.22;;;15.15;;
20669;SDS011;10494;50.868;4.180;2023-11-21T00:24:40;40.08;;;16.58;;
20669;SDS011;10494;50.868;4.180;2023-11-21T00:27:06;35.03;;;15.25;;
20669;SDS011;10494;50.868;4.180;2023-11-21T00:29:32;35.88;;;15.05;;
20669;SDS011;10494;50.868;4.180;2023-11-21T00:31:57;33.47;;;14.40;;
20669;SDS011;10494;50.868;4.180;2023-11-21T00:34:23;35.95;;;15.18;;
20669;SDS011;10494;50.868;4.180;2023-11-21T00:36:49;33.80;;;13.70;;
20669;SDS011;10494;50.868;4.180;2023-11-21T00:39:14;34.90;;;14.13;;
20669;SDS011;10494;50.868;4.180;2023-11-21T00:41:40;36.92;;;14.00;;
20669;SDS011;10494;50.868;4.180;2023-11-21T00:44:07;36.55;;;15.88;;
20669;SDS011;10494;50.868;4.180;2023-11-21T00:46:32;34.40;;;15.65;;
20669;SDS011;10494;50.868;4.180;2023-11-21T00:48:58;37.15;;;14.98;;
20669;SDS011;10494;50.868;4.180;2023-11-21T00:51:23;32.97;;;13.95;;
20669;SDS011;10494;50.868;4.180;2023-11-21T00:53:49;32.72;;;14.02;;
20669;SDS011;10494;50.868;4.180;2023-11-21T00:56:15;34.15;;;14.80;;
20669;SDS011;10494;50.868;4.180;2023-11-21T00:58:41;34.22;;;14.73;;
20669;SDS011;10494;50.868;4.180;2023-11-21T01:01:14;29.33;;;13.55;;
20669;SDS011;10494;50.868;4.180;2023-11-21T01:03:40;29.60;;;13.43;;
20669;SDS011;10494;50.868;4.180;2023-11-21T01:06:06;33.40;;;13.90;;
20669;SDS011;10494;50.868;4.180;2023-11-21T01:08:32;46.20;;;16.10;;
20669;SDS011;10494;50.868;4.180;2023-11-21T01:10:58;38.92;;;16.30;;
20669;SDS011;10494;50.868;4.180;2023-11-21T01:13:23;34.03;;;14.38;;
20669;SDS011;10494;50.868;4.180;2023-11-21T01:15:54;37.40;;;14.13;;
20669;SDS011;10494;50.868;4.180;2023-11-21T01:18:20;32.78;;;13.75;;
20669;SDS011;10494;50.868;4.180;2023-11-21T01:20:46;29.73;;;12.90;;
20669;SDS011;10494;50.868;4.180;2023-11-21T01:23:12;29.00;;;13.73;;
20669;SDS011;10494;50.868;4.180;2023-11-21T01:25:38;29.67;;;13.38;;
20669;SDS011;10494;50.868;4.180;2023-11-21T01:28:04;33.70;;;15.00;;
20669;SDS011;10494;50.868;4.180;2023-11-21T01:30:29;36.33;;;14.38;;
20669;SDS011;10494;50.868;4.180;2023-11-21T01:32:55;27.65;;;12.93;;
20669;SDS011;10494;50.868;4.180;2023-11-21T01:35:21;24.80;;;11.82;;
20669;SDS011;10494;50.868;4.180;2023-11-21T01:37:47;26.10;;;12.07;;
20669;SDS011;10494;50.868;4.180;2023-11-21T01:40:13;23.60;;;9.90;;
20669;SDS011;10494;50.868;4.180;2023-11-21T01:42:39;22.05;;;10.32;;
20669;SDS011;10494;50.868;4.180;2023-11-21T01:45:06;20.08;;;10.45;;
20669;SDS011;10494;50.868;4.180;2023-11-21T01:47:32;30.20;;;13.02;;
20669;SDS011;10494;50.868;4.180;2023-11-21T01:49:59;25.70;;;12.02;;
20669;SDS011;10494;50.868;4.180;2023-11-21T01:52:24;31.95;;;12.52;;
20669;SDS011;10494;50.868;4.180;2023-11-21T01:54:51;26.73;;;11.90;;
20669;SDS011;10494;50.868;4.180;2023-11-21T01:57:18;32.85;;;13.75;;
20669;SDS011;10494;50.868;4.180;2023-11-21T01:59:45;30.52;;;14.23;;
20669;SDS011;10494;50.868;4.180;2023-11-21T02:02:13;32.38;;;13.02;;
20669;SDS011;10494;50.868;4.180;2023-11-21T02:04:39;41.38;;;15.40;;
20669;SDS011;10494;50.868;4.180;2023-11-21T02:07:05;32.25;;;14.00;;
20669;SDS011;10494;50.868;4.180;2023-11-21T02:09:31;38.17;;;13.50;;
20669;SDS011;10494;50.868;4.180;2023-11-21T02:11:58;30.42;;;13.05;;
20669;SDS011;10494;50.868;4.180;2023-11-21T02:14:27;29.02;;;12.88;;
20669;SDS011;10494;50.868;4.180;2023-11-21T02:16:56;31.02;;;12.90;;
20669;SDS011;10494;50.868;4.180;2023-11-21T02:19:22;38.22;;;14.85;;
20669;SDS011;10494;50.868;4.180;2023-11-21T02:21:50;35.80;;;14.90;;
20669;SDS011;10494;50.868;4.180;2023-11-21T02:24:20;39.92;;;14.65;;
20669;SDS011;10494;50.868;4.180;2023-11-21T02:26:47;34.67;;;13.82;;
20669;SDS011;10494;50.868;4.180;2023-11-21T02:29:16;34.78;;;13.23;;
20669;SDS011;10494;50.868;4.180;2023-11-21T02:31:43;29.88;;;12.60;;
20669;SDS011;10494;50.868;4.180;2023-11-21T02:34:16;33.55;;;12.25;;
20669;SDS011;10494;50.868;4.180;2023-11-21T02:36:43;34.60;;;13.07;;
20669;SDS011;10494;50.868;4.180;2023-11-21T02:39:12;40.92;;;15.70;;
20669;SDS011;10494;50.868;4.180;2023-11-21T02:41:38;36.13;;;13.88;;
20669;SDS011;10494;50.868;4.180;2023-11-21T02:44:04;30.58;;;12.32;;
20669;SDS011;10494;50.868;4.180;2023-11-21T02:46:35;31.17;;;12.73;;
20669;SDS011;10494;50.868;4.180;2023-11-21T02:49:02;32.05;;;12.57;;
20669;SDS011;10494;50.868;4.180;2023-11-21T02:51:29;28.10;;;13.13;;
20669;SDS011;10494;50.868;4.180;2023-11-21T02:53:55;28.75;;;13.02;;
20669;SDS011;10494;50.868;4.180;2023-11-21T02:56:24;34.08;;;13.68;;
20669;SDS011;10494;50.868;4.180;2023-11-21T02:58:50;45.10;;;16.00;;
20669;SDS011;10494;50.868;4.180;2023-11-21T03:01:16;43.33;;;15.23;;
20669;SDS011;10494;50.868;4.180;2023-11-21T03:03:42;40.13;;;15.48;;
20669;SDS011;10494;50.868;4.180;2023-11-21T03:06:07;28.40;;;12.82;;
20669;SDS011;10494;50.868;4.180;2023-11-21T03:08:33;37.97;;;14.82;;
20669;SDS011;10494;50.868;4.180;2023-11-21T03:10:59;29.92;;;12.88;;
20669;SDS011;10494;50.868;4.180;2023-11-21T03:13:25;38.47;;;13.13;;
20669;SDS011;10494;50.868;4.180;2023-11-21T03:15:51;27.63;;;12.10;;
20669;SDS011;10494;50.868;4.180;2023-11-21T03:18:17;27.80;;;12.82;;
20669;SDS011;10494;50.868;4.180;2023-11-21T03:20:43;33.00;;;13.52;;
20669;SDS011;10494;50.868;4.180;2023-11-21T03:23:11;33.80;;;13.20;;
20669;SDS011;10494;50.868;4.180;2023-11-21T03:25:37;32.58;;;13.98;;
20669;SDS011;10494;50.868;4.180;2023-11-21T03:28:03;35.97;;;13.90;;
20669;SDS011;10494;50.868;4.180;2023-11-21T03:30:29;39.33;;;15.48;;
20669;SDS011;10494;50.868;4.180;2023-11-21T03:32:55;35.67;;;16.17;;
20669;SDS011;10494;50.868;4.180;2023-11-21T03:35:20;36.15;;;15.73;;
20669;SDS011;10494;50.868;4.180;2023-11-21T03:37:46;31.25;;;14.25;;
20669;SDS011;10494;50.868;4.180;2023-11-21T03:40:12;42.25;;;17.40;;
20669;SDS011;10494;50.868;4.180;2023-11-21T03:42:38;41.40;;;17.98;;
20669;SDS011;10494;50.868;4.180;2023-11-21T03:45:05;44.92;;;17.45;;
20669;SDS011;10494;50.868;4.180;2023-11-21T03:47:31;39.10;;;15.77;;
20669;SDS011;10494;50.868;4.180;2023-11-21T03:49:56;39.40;;;15.48;;
20669;SDS011;10494;50.868;4.180;2023-11-21T03:52:22;38.70;;;16.10;;
20669;SDS011;10494;50.868;4.180;2023-11-21T03:54:48;35.45;;;15.23;;
20669;SDS011;10494;50.868;4.180;2023-11-21T03:57:14;38.30;;;16.30;;
20669;SDS011;10494;50.868;4.180;2023-11-21T03:59:40;38.53;;;15.75;;
20669;SDS011;10494;50.868;4.180;2023-11-21T04:02:06;29.95;;;15.93;;
20669;SDS011;10494;50.868;4.180;2023-11-21T04:04:33;34.75;;;15.30;;
20669;SDS011;10494;50.868;4.180;2023-11-21T04:06:59;46.47;;;17.95;;
20669;SDS011;10494;50.868;4.180;2023-11-21T04:09:24;36.80;;;16.25;;
20669;SDS011;10494;50.868;4.180;2023-11-21T04:11:50;34.45;;;15.90;;
20669;SDS011;10494;50.868;4.180;2023-11-21T04:14:17;29.20;;;14.27;;
20669;SDS011;10494;50.868;4.180;2023-11-21T04:16:43;33.33;;;14.70;;
20669;SDS011;10494;50.868;4.180;2023-11-21T04:19:08;31.38;;;15.40;;
20669;SDS011;10494;50.868;4.180;2023-11-21T04:21:39;40.17;;;17.02;;
20669;SDS011;10494;50.868;4.180;2023-11-21T04:24:06;38.60;;;17.80;;
20669;SDS011;10494;50.868;4.180;2023-11-21T04:26:32;39.50;;;17.42;;
20669;SDS011;10494;50.868;4.180;2023-11-21T04:28:57;38.85;;;17.27;;
20669;SDS011;10494;50.868;4.180;2023-11-21T04:31:23;49.17;;;18.52;;
20669;SDS011;10494;50.868;4.180;2023-11-21T04:33:48;47.70;;;18.08;;
20669;SDS011;10494;50.868;4.180;2023-11-21T04:36:14;41.17;;;17.52;;
20669;SDS011;10494;50.868;4.180;2023-11-21T04:38:39;39.10;;;18.05;;
20669;SDS011;10494;50.868;4.180;2023-11-21T04:41:06;36.92;;;16.30;;
20669;SDS011;10494;50.868;4.180;2023-11-21T04:43:31;39.88;;;17.77;;
20669;SDS011;10494;50.868;4.180;2023-11-21T04:45:57;40.17;;;15.25;;
20669;SDS011;10494;50.868;4.180;2023-11-21T04:48:22;41.35;;;15.82;;
20669;SDS011;10494;50.868;4.180;2023-11-21T04:50:48;37.60;;;16.00;;
20669;SDS011;10494;50.868;4.180;2023-11-21T04:53:14;32.40;;;14.50;;
20669;SDS011;10494;50.868;4.180;2023-11-21T04:55:40;30.58;;;13.52;;
20669;SDS011;10494;50.868;4.180;2023-11-21T04:58:06;34.45;;;13.98;;
20669;SDS011;10494;50.868;4.180;2023-11-21T05:00:33;29.42;;;13.82;;
20669;SDS011;10494;50.868;4.180;2023-11-21T05:02:59;31.70;;;13.77;;
20669;SDS011;10494;50.868;4.180;2023-11-21T05:05:26;27.98;;;12.98;;
20669;SDS011;10494;50.868;4.180;2023-11-21T05:07:51;35.63;;;13.23;;
20669;SDS011;10494;50.868;4.180;2023-11-21T05:10:18;29.23;;;13.48;;
20669;SDS011;10494;50.868;4.180;2023-11-21T05:12:44;32.25;;;13.75;;
20669;SDS011;10494;50.868;4.180;2023-11-21T05:15:13;33.92;;;14.75;;
20669;SDS011;10494;50.868;4.180;2023-11-21T05:17:39;36.33;;;16.05;;
20669;SDS011;10494;50.868;4.180;2023-11-21T05:20:07;46.50;;;17.27;;
20669;SDS011;10494;50.868;4.180;2023-11-21T05:22:35;36.45;;;15.50;;
20669;SDS011;10494;50.868;4.180;2023-11-21T05:25:01;37.00;;;15.30;;
20669;SDS011;10494;50.868;4.180;2023-11-21T05:27:28;34.00;;;14.95;;
20669;SDS011;10494;50.868;4.180;2023-11-21T05:29:55;41.30;;;15.93;;
20669;SDS011;10494;50.868;4.180;2023-11-21T05:32:22;35.92;;;15.90;;
20669;SDS011;10494;50.868;4.180;2023-11-21T05:34:48;27.98;;;14.77;;
20669;SDS011;10494;50.868;4.180;2023-11-21T05:37:14;33.50;;;14.98;;
20669;SDS011;10494;50.868;4.180;2023-11-21T05:39:39;32.13;;;13.70;;
20669;SDS011;10494;50.868;4.180;2023-11-21T05:42:05;38.53;;;14.98;;
20669;SDS011;10494;50.868;4.180;2023-11-21T05:44:31;42.03;;;14.95;;
20669;SDS011;10494;50.868;4.180;2023-11-21T05:46:57;34.67;;;15.45;;
20669;SDS011;10494;50.868;4.180;2023-11-21T05:49:23;36.00;;;14.90;;
20669;SDS011;10494;50.868;4.180;2023-11-21T05:51:51;26.55;;;13.07;;
20669;SDS011;10494;50.868;4.180;2023-11-21T05:54:19;34.78;;;14.73;;
20669;SDS011;10494;50.868;4.180;2023-11-21T05:56:44;39.60;;;16.50;;
20669;SDS011;10494;50.868;4.180;2023-11-21T05:59:10;33.08;;;15.02;;
20669;SDS011;10494;50.868;4.180;2023-11-21T06:01:35;34.42;;;14.82;;
20669;SDS011;10494;50.868;4.180;2023-11-21T06:04:03;34.72;;;14.05;;
20669;SDS011;10494;50.868;4.180;2023-11-21T06:06:29;35.00;;;13.82;;
20669;SDS011;10494;50.868;4.180;2023-11-21T06:08:56;38.55;;;16.73;;
20669;SDS011;10494;50.868;4.180;2023-11-21T06:11:22;34.63;;;16.23;;
20669;SDS011;10494;50.868;4.180;2023-11-21T06:13:47;38.55;;;16.10;;
20669;SDS011;10494;50.868;4.180;2023-11-21T06:16:14;40.45;;;16.27;;
20669;SDS011;10494;50.868;4.180;2023-11-21T06:18:42;38.03;;;14.77;;
20669;SDS011;10494;50.868;4.180;2023-11-21T06:21:12;40.92;;;17.23;;
20669;SDS011;10494;50.868;4.180;2023-11-21T06:23:38;34.80;;;14.27;;
20669;SDS011;10494;50.868;4.180;2023-11-21T06:26:04;41.28;;;15.48;;
20669;SDS011;10494;50.868;4.180;2023-11-21T06:28:31;44.50;;;18.52;;
20669;SDS011;10494;50.868;4.180;2023-11-21T06:30:57;37.10;;;17.38;;
20669;SDS011;10494;50.868;4.180;2023-11-21T06:33:23;40.72;;;17.88;;
20669;SDS011;10494;50.868;4.180;2023-11-21T06:35:49;38.17;;;17.48;;
20669;SDS011;10494;50.868;4.180;2023-11-21T06:38:14;43.13;;;18.52;;
20669;SDS011;10494;50.868;4.180;2023-11-21T06:40:40;42.03;;;16.40;;
20669;SDS011;10494;50.868;4.180;2023-11-21T06:43:06;39.05;;;17.05;;
20669;SDS011;10494;50.868;4.180;2023-11-21T06:45:32;39.20;;;16.00;;
20669;SDS011;10494;50.868;4.180;2023-11-21T06:47:59;39.65;;;17.05;;
20669;SDS011;10494;50.868;4.180;2023-11-21T06:50:25;42.40;;;17.08;;
20669;SDS011;10494;50.868;4.180;2023-11-21T06:52:51;46.30;;;18.02;;
20669;SDS011;10494;50.868;4.180;2023-11-21T06:55:16;45.88;;;19.67;;
20669;SDS011;10494;50.868;4.180;2023-11-21T06:57:42;41.53;;;17.63;;
20669;SDS011;10494;50.868;4.180;2023-11-21T07:00:09;43.53;;;16.50;;
20669;SDS011;10494;50.868;4.180;2023-11-21T07:02:36;42.13;;;18.42;;
20669;SDS011;10494;50.868;4.180;2023-11-21T07:05:02;40.63;;;16.95;;
20669;SDS011;10494;50.868;4.180;2023-11-21T07:07:27;37.97;;;16.17;;
20669;SDS011;10494;50.868;4.180;2023-11-21T07:09:53;37.78;;;17.00;;
20669;SDS011;10494;50.868;4.180;2023-11-21T07:12:19;39.55;;;16.80;;
20669;SDS011;10494;50.868;4.180;2023-11-21T07:14:44;41.25;;;18.10;;
20669;SDS011;10494;50.868;4.180;2023-11-21T07:17:10;44.00;;;17.33;;
20669;SDS011;10494;50.868;4.180;2023-11-21T07:19:39;32.83;;;17.15;;
20669;SDS011;10494;50.868;4.180;2023-11-21T07:22:06;43.17;;;18.63;;
20669;SDS011;10494;50.868;4.180;2023-11-21T07:24:33;43.60;;;16.58;;
20669;SDS011;10494;50.868;4.180;2023-11-21T07:26:59;34.50;;;16.50;;
20669;SDS011;10494;50.868;4.180;2023-11-21T07:29:25;35.45;;;15.27;;
20669;SDS011;10494;50.868;4.180;2023-11-21T07:31:52;41.45;;;16.65;;
20669;SDS011;10494;50.868;4.180;2023-11-21T07:34:19;42.28;;;18.45;;
20669;SDS011;10494;50.868;4.180;2023-11-21T07:36:45;37.17;;;17.05;;
20669;SDS011;10494;50.868;4.180;2023-11-21T07:39:11;45.85;;;18.38;;
20669;SDS011;10494;50.868;4.180;2023-11-21T07:41:36;43.72;;;16.55;;
20669;SDS011;10494;50.868;4.180;2023-11-21T07:44:09;36.72;;;17.08;;
20669;SDS011;10494;50.868;4.180;2023-11-21T07:46:35;50.00;;;20.23;;
20669;SDS011;10494;50.868;4.180;2023-11-21T07:49:01;40.03;;;18.00;;
20669;SDS011;10494;50.868;4.180;2023-11-21T07:51:26;45.28;;;19.33;;
20669;SDS011;10494;50.868;4.180;2023-11-21T07:53:52;40.97;;;20.08;;
20669;SDS011;10494;50.868;4.180;2023-11-21T07:56:17;56.55;;;22.17;;
20669;SDS011;10494;50.868;4.180;2023-11-21T07:58:43;40.22;;;19.35;;
20669;SDS011;10494;50.868;4.180;2023-11-21T08:01:09;43.60;;;19.10;;
20669;SDS011;10494;50.868;4.180;2023-11-21T08:03:35;43.67;;;19.20;;
20669;SDS011;10494;50.868;4.180;2023-11-21T08:06:01;40.15;;;18.83;;
20669;SDS011;10494;50.868;4.180;2023-11-21T08:08:28;38.22;;;18.35;;
20669;SDS011;10494;50.868;4.180;2023-11-21T08:10:54;50.90;;;20.20;;
20669;SDS011;10494;50.868;4.180;2023-11-21T08:13:26;45.70;;;19.02;;
20669;SDS011;10494;50.868;4.180;2023-11-21T08:15:56;63.22;;;21.67;;
20669;SDS011;10494;50.868;4.180;2023-11-21T08:18:28;36.95;;;18.02;;
20669;SDS011;10494;50.868;4.180;2023-11-21T08:20:54;49.80;;;20.75;;
20669;SDS011;10494;50.868;4.180;2023-11-21T08:23:20;51.63;;;19.75;;
20669;SDS011;10494;50.868;4.180;2023-11-21T08:25:50;55.75;;;23.63;;
20669;SDS011;10494;50.868;4.180;2023-11-21T08:28:16;58.67;;;22.63;;
20669;SDS011;10494;50.868;4.180;2023-11-21T08:30:42;45.90;;;21.42;;
20669;SDS011;10494;50.868;4.180;2023-11-21T08:33:07;42.22;;;18.95;;
20669;SDS011;10494;50.868;4.180;2023-11-21T08:35:33;54.95;;;21.48;;
20669;SDS011;10494;50.868;4.180;2023-11-21T08:37:59;48.03;;;21.75;;
20669;SDS011;10494;50.868;4.180;2023-11-21T08:40:25;51.35;;;21.20;;
20669;SDS011;10494;50.868;4.180;2023-11-21T08:42:51;52.65;;;21.17;;
20669;SDS011;10494;50.868;4.180;2023-11-21T08:45:17;54.90;;;21.55;;
20669;SDS011;10494;50.868;4.180;2023-11-21T08:47:44;48.20;;;20.35;;
20669;SDS011;10494;50.868;4.180;2023-11-21T08:50:10;58.75;;;21.58;;
20669;SDS011;10494;50.868;4.180;2023-11-21T08:52:37;51.83;;;22.48;;
20669;SDS011;10494;50.868;4.180;2023-11-21T08:55:04;45.38;;;19.00;;
20669;SDS011;10494;50.868;4.180;2023-11-21T08:57:35;39.75;;;18.90;;
20669;SDS011;10494;50.868;4.180;2023-11-21T09:00:05;52.63;;;22.17;;
20669;SDS011;10494;50.868;4.180;2023-11-21T09:02:33;46.63;;;18.10;;
20669;SDS011;10494;50.868;4.180;2023-11-21T09:04:59;38.90;;;18.35;;
20669;SDS011;10494;50.868;4.180;2023-11-21T09:07:28;53.60;;;20.52;;
20669;SDS011;10494;50.868;4.180;2023-11-21T09:09:54;47.47;;;19.73;;
20669;SDS011;10494;50.868;4.180;2023-11-21T09:12:20;44.72;;;20.42;;
20669;SDS011;10494;50.868;4.180;2023-11-21T09:14:46;55.90;;;22.08;;
20669;SDS011;10494;50.868;4.180;2023-11-21T09:17:11;46.10;;;19.88;;
20669;SDS011;10494;50.868;4.180;2023-11-21T09:19:37;42.05;;;17.50;;
20669;SDS011;10494;50.868;4.180;2023-11-21T09:22:03;51.67;;;20.92;;
20669;SDS011;10494;50.868;4.180;2023-11-21T09:24:30;42.38;;;18.15;;
20669;SDS011;10494;50.868;4.180;2023-11-21T09:26:56;54.50;;;20.70;;
20669;SDS011;10494;50.868;4.180;2023-11-21T09:29:22;45.95;;;20.25;;
20669;SDS011;10494;50.868;4.180;2023-11-21T09:31:47;43.88;;;19.88;;
20669;SDS011;10494;50.868;4.180;2023-11-21T09:34:16;57.95;;;20.30;;
20669;SDS011;10494;50.868;4.180;2023-11-21T09:36:44;48.40;;;19.73;;
20669;SDS011;10494;50.868;4.180;2023-11-21T09:39:10;54.28;;;20.80;;
20669;SDS011;10494;50.868;4.180;2023-11-21T09:44:17;58.00;;;21.15;;
20669;SDS011;10494;50.868;4.180;2023-11-21T09:46:47;47.22;;;20.30;;
20669;SDS011;10494;50.868;4.180;2023-11-21T09:49:14;51.65;;;20.27;;
20669;SDS011;10494;50.868;4.180;2023-11-21T09:51:44;56.00;;;21.20;;
20669;SDS011;10494;50.868;4.180;2023-11-21T09:54:11;50.45;;;19.02;;
20669;SDS011;10494;50.868;4.180;2023-11-21T09:56:40;52.92;;;17.00;;
20669;SDS011;10494;50.868;4.180;2023-11-21T09:59:07;37.13;;;15.43;;
20669;SDS011;10494;50.868;4.180;2023-11-21T10:01:38;48.17;;;16.63;;
20669;SDS011;10494;50.868;4.180;2023-11-21T10:04:05;45.35;;;17.30;;
20669;SDS011;10494;50.868;4.180;2023-11-21T10:06:39;45.35;;;17.02;;
20669;SDS011;10494;50.868;4.180;2023-11-21T10:09:07;44.65;;;17.83;;
20669;SDS011;10494;50.868;4.180;2023-11-21T10:11:40;44.40;;;19.10;;
20669;SDS011;10494;50.868;4.180;2023-11-21T10:14:07;41.50;;;16.95;;
20669;SDS011;10494;50.868;4.180;2023-11-21T10:16:36;48.25;;;17.88;;
20669;SDS011;10494;50.868;4.180;2023-11-21T10:19:04;43.45;;;18.63;;
20669;SDS011;10494;50.868;4.180;2023-11-21T10:21:32;48.60;;;18.40;;
20669;SDS011;10494;50.868;4.180;2023-11-21T10:23:58;47.10;;;18.35;;
20669;SDS011;10494;50.868;4.180;2023-11-21T10:26:23;42.00;;;19.42;;
20669;SDS011;10494;50.868;4.180;2023-11-21T10:28:59;39.33;;;17.65;;
20669;SDS011;10494;50.868;4.180;2023-11-21T10:31:29;34.40;;;16.27;;
20669;SDS011;10494;50.868;4.180;2023-11-21T10:34:17;32.75;;;16.13;;
20669;SDS011;10494;50.868;4.180;2023-11-21T10:36:45;30.63;;;14.48;;
20669;SDS011;10494;50.868;4.180;2023-11-21T10:39:14;26.50;;;13.18;;
20669;SDS011;10494;50.868;4.180;2023-11-21T10:41:45;28.23;;;14.27;;
20669;SDS011;10494;50.868;4.180;2023-11-21T10:44:16;29.98;;;13.95;;
20669;SDS011;10494;50.868;4.180;2023-11-21T10:46:45;29.00;;;13.35;;
20669;SDS011;10494;50.868;4.180;2023-11-21T10:49:21;23.65;;;13.27;;
20669;SDS011;10494;50.868;4.180;2023-11-21T10:51:49;25.55;;;14.07;;
20669;SDS011;10494;50.868;4.180;2023-11-21T10:54:20;25.60;;;13.32;;
20669;SDS011;10494;50.868;4.180;2023-11-21T10:56:48;25.40;;;13.48;;
20669;SDS011;10494;50.868;4.180;2023-11-21T10:59:16;24.08;;;13.57;;
20669;SDS011;10494;50.868;4.180;2023-11-21T11:01:44;24.48;;;13.07;;
20669;SDS011;10494;50.868;4.180;2023-11-21T11:04:11;21.70;;;13.27;;
20669;SDS011;10494;50.868;4.180;2023-11-21T11:06:40;22.33;;;12.75;;
20669;SDS011;10494;50.868;4.180;2023-11-21T11:09:07;24.45;;;13.85;;
20669;SDS011;10494;50.868;4.180;2023-11-21T11:11:37;22.95;;;13.50;;
20669;SDS011;10494;50.868;4.180;2023-11-21T11:14:07;24.52;;;13.20;;
20669;SDS011;10494;50.868;4.180;2023-11-21T11:16:38;28.30;;;14.57;;
20669;SDS011;10494;50.868;4.180;2023-11-21T11:19:06;22.55;;;13.93;;
20669;SDS011;10494;50.868;4.180;2023-11-21T11:24:44;22.38;;;12.45;;
20669;SDS011;10494;50.868;4.180;2023-11-21T11:32:43;14.25;;;8.65;;
20669;SDS011;10494;50.868;4.180;2023-11-21T11:35:25;15.05;;;7.90;;
20669;SDS011;10494;50.868;4.180;2023-11-21T11:37:55;13.10;;;7.25;;
20669;SDS011;10494;50.868;4.180;2023-11-21T11:40:21;10.30;;;6.40;;
20669;SDS011;10494;50.868;4.180;2023-11-21T11:42:57;8.98;;;5.47;;
20669;SDS011;10494;50.868;4.180;2023-11-21T11:45:32;9.65;;;5.25;;
20669;SDS011;10494;50.868;4.180;2023-11-21T11:47:59;12.15;;;5.53;;
20669;SDS011;10494;50.868;4.180;2023-11-21T11:50:25;9.57;;;5.57;;
20669;SDS011;10494;50.868;4.180;2023-11-21T11:52:55;13.10;;;5.65;;
20669;SDS011;10494;50.868;4.180;2023-11-21T11:55:36;14.23;;;5.50;;
20669;SDS011;10494;50.868;4.180;2023-11-21T11:58:04;13.52;;;5.55;;
20669;SDS011;10494;50.868;4.180;2023-11-21T12:02:58;10.90;;;5.47;;
20669;SDS011;10494;50.868;4.180;2023-11-21T12:05:30;14.57;;;4.35;;
20669;SDS011;10494;50.868;4.180;2023-11-21T12:07:59;5.85;;;3.78;;
20669;SDS011;10494;50.868;4.180;2023-11-21T12:10:33;10.40;;;4.10;;
20669;SDS011;10494;50.868;4.180;2023-11-21T12:15:26;10.10;;;4.00;;
20669;SDS011;10494;50.868;4.180;2023-11-21T12:17:55;9.73;;;3.80;;
20669;SDS011;10494;50.868;4.180;2023-11-21T12:20:22;10.80;;;4.20;;
20669;SDS011;10494;50.868;4.180;2023-11-21T12:22:59;7.85;;;4.05;;
20669;SDS011;10494;50.868;4.180;2023-11-21T12:25:25;8.73;;;3.67;;
20669;SDS011;10494;50.868;4.180;2023-11-21T12:27:54;8.95;;;3.92;;
20669;SDS011;10494;50.868;4.180;2023-11-21T12:30:21;8.30;;;4.15;;
20669;SDS011;10494;50.868;4.180;2023-11-21T12:32:52;10.98;;;4.60;;
20669;SDS011;10494;50.868;4.180;2023-11-21T12:35:19;8.13;;;4.25;;
20669;SDS011;10494;50.868;4.180;2023-11-21T12:37:47;7.70;;;3.60;;
20669;SDS011;10494;50.868;4.180;2023-11-21T12:40:14;12.18;;;4.25;;
20669;SDS011;10494;50.868;4.180;2023-11-21T12:42:41;5.40;;;3.60;;
20669;SDS011;10494;50.868;4.180;2023-11-21T12:45:17;6.32;;;3.92;;
20669;SDS011;10494;50.868;4.180;2023-11-21T12:47:48;8.90;;;4.35;;
20669;SDS011;10494;50.868;4.180;2023-11-21T12:50:18;12.32;;;5.10;;
20669;SDS011;10494;50.868;4.180;2023-11-21T12:52:48;10.02;;;4.38;;
20669;SDS011;10494;50.868;4.180;2023-11-21T12:55:19;10.82;;;4.43;;
20669;SDS011;10494;50.868;4.180;2023-11-21T12:57:49;9.95;;;4.20;;
20669;SDS011;10494;50.868;4.180;2023-11-21T13:00:17;10.10;;;4.10;;
20669;SDS011;10494;50.868;4.180;2023-11-21T13:02:57;10.90;;;5.35;;
20669;SDS011;10494;50.868;4.180;2023-11-21T13:05:45;9.82;;;4.28;;
20669;SDS011;10494;50.868;4.180;2023-11-21T13:08:11;9.68;;;4.20;;
20669;SDS011;10494;50.868;4.180;2023-11-21T13:10:44;9.55;;;4.93;;
20669;SDS011;10494;50.868;4.180;2023-11-21T13:13:12;9.32;;;4.90;;
20669;SDS011;10494;50.868;4.180;2023-11-21T13:15:55;11.80;;;4.47;;
20669;SDS011;10494;50.868;4.180;2023-11-21T13:18:30;7.13;;;4.75;;
20669;SDS011;10494;50.868;4.180;2023-11-21T13:20:57;11.18;;;5.60;;
20669;SDS011;10494;50.868;4.180;2023-11-21T13:23:24;8.88;;;5.20;;
20669;SDS011;10494;50.868;4.180;2023-11-21T13:25:50;10.48;;;4.28;;
20669;SDS011;10494;50.868;4.180;2023-11-21T13:28:17;7.38;;;5.18;;
20669;SDS011;10494;50.868;4.180;2023-11-21T13:30:47;7.40;;;4.70;;
20669;SDS011;10494;50.868;4.180;2023-11-21T13:33:13;8.93;;;4.93;;
20669;SDS011;10494;50.868;4.180;2023-11-21T13:35:52;10.73;;;5.10;;
20669;SDS011;10494;50.868;4.180;2023-11-21T13:38:18;7.75;;;5.10;;
20669;SDS011;10494;50.868;4.180;2023-11-21T13:40:51;12.75;;;6.13;;
20669;SDS011;10494;50.868;4.180;2023-11-21T13:43:22;9.52;;;5.15;;
20669;SDS011;10494;50.868;4.180;2023-11-21T13:45:50;8.65;;;5.20;;
20669;SDS011;10494;50.868;4.180;2023-11-21T13:48:23;8.80;;;5.70;;
20669;SDS011;10494;50.868;4.180;2023-11-21T13:51:12;10.98;;;5.80;;
20669;SDS011;10494;50.868;4.180;2023-11-21T13:53:47;7.53;;;4.82;;
20669;SDS011;10494;50.868;4.180;2023-11-21T13:56:15;10.82;;;6.15;;
20669;SDS011;10494;50.868;4.180;2023-11-21T13:58:45;11.02;;;5.35;;
20669;SDS011;10494;50.868;4.180;2023-11-21T14:01:17;13.13;;;6.35;;
20669;SDS011;10494;50.868;4.180;2023-11-21T14:03:54;13.15;;;7.55;;
20669;SDS011;10494;50.868;4.180;2023-11-21T14:06:33;9.35;;;6.22;;
20669;SDS011;10494;50.868;4.180;2023-11-21T14:09:05;12.52;;;6.13;;
20669;SDS011;10494;50.868;4.180;2023-11-21T14:11:31;10.23;;;6.10;;
20669;SDS011;10494;50.868;4.180;2023-11-21T14:13:59;8.50;;;5.65;;
20669;SDS011;10494;50.868;4.180;2023-11-21T14:16:25;12.60;;;6.13;;
20669;SDS011;10494;50.868;4.180;2023-11-21T14:18:50;9.18;;;5.68;;
20669;SDS011;10494;50.868;4.180;2023-11-21T14:21:26;11.95;;;5.80;;
20669;SDS011;10494;50.868;4.180;2023-11-21T14:23:52;8.57;;;5.43;;
20669;SDS011;10494;50.868;4.180;2023-11-21T14:26:20;9.82;;;5.25;;
20669;SDS011;10494;50.868;4.180;2023-11-21T14:28:46;17.63;;;5.90;;
20669;SDS011;10494;50.868;4.180;2023-11-21T14:31:13;7.85;;;5.15;;
20669;SDS011;10494;50.868;4.180;2023-11-21T14:33:42;8.73;;;5.45;;
20669;SDS011;10494;50.868;4.180;2023-11-21T14:36:10;11.23;;;5.55;;
20669;SDS011;10494;50.868;4.180;2023-11-21T14:38:36;7.53;;;4.75;;
20669;SDS011;10494;50.868;4.180;2023-11-21T14:41:06;7.72;;;4.90;;
20669;SDS011;10494;50.868;4.180;2023-11-21T14:43:36;6.80;;;4.43;;